Time;durP1;ratioP1;P1;durP2;ratioP2;P2;SDS_P1;SDS_P2;PMS_P1;PMS_P2;Temp;Humidity;BMP_temperature;BMP_pressure;BME280_temperature;BME280_humidity;BME280_pressure;Samples;Min_cycle;Max_cycle;Signal;HPM_P1;HPM_P2
2021/09/13 00:01:34;;;;;;;15.10;10.10;;;;;;;17.03;51.02;99864.97;5071680;28;20024;-22
2021/09/13 00:04:00;;;;;;;18.35;10.38;;;;;;;17.20;51.20;99857.47;5071405;28;20028;-22
2021/09/13 00:06:25;;;;;;;15.82;10.68;;;;;;;16.99;49.71;99877.34;5071770;28;20063;-22
2021/09/13 00:08:51;;;;;;;20.50;11.00;;;;;;;16.52;52.13;99870.97;5071261;28;20032;-22
2021/09/13 00:11:16;;;;;;;16.92;11.57;;;;;;;16.55;52.03;99875.84;5071408;28;20041;-22
2021/09/13 00:13:42;;;;;;;18.35;11.60;;;;;;;16.23;52.40;99854.41;5071035;28;20158;-21
2021/09/13 00:16:07;;;;;;;18.15;12.05;;;;;;;16.44;53.20;99869.56;5071336;28;20116;-22
2021/09/13 00:18:33;;;;;;;16.88;11.02;;;;;;;16.79;52.98;99878.84;5071068;28;20111;-22
2021/09/13 00:20:58;;;;;;;17.85;11.07;;;;;;;16.55;52.99;99858.84;5071216;28;20043;-21
2021/09/13 00:23:24;;;;;;;17.15;11.43;;;;;;;16.59;52.67;99873.41;5071015;28;20071;-22
2021/09/13 00:25:49;;;;;;;16.90;11.50;;;;;;;16.32;53.98;99871.66;5052945;28;20114;-21
2021/09/13 00:28:15;;;;;;;17.95;11.40;;;;;;;16.21;54.58;99861.94;5070975;28;20028;-22
2021/09/13 00:30:40;;;;;;;18.42;11.13;;;;;;;16.04;54.45;99868.31;5053089;28;20040;-22
2021/09/13 00:33:06;;;;;;;15.98;11.38;;;;;;;16.33;53.65;99865.22;5070976;28;20393;-22
2021/09/13 00:35:31;;;;;;;17.02;11.63;;;;;;;15.90;54.41;99856.38;5070955;28;20028;-22
2021/09/13 00:37:57;;;;;;;19.08;12.15;;;;;;;15.76;54.85;99839.88;5070678;28;20025;-22
2021/09/13 00:40:23;;;;;;;14.88;10.48;;;;;;;15.14;54.83;99859.22;5070798;28;20032;-22
2021/09/13 00:42:48;;;;;;;16.60;9.63;;;;;;;14.75;56.60;99862.88;5070807;28;20033;-22
2021/09/13 00:45:14;;;;;;;13.55;9.88;;;;;;;15.13;56.64;99853.03;5052634;28;20028;-21
2021/09/13 00:47:39;;;;;;;14.95;10.80;;;;;;;15.67;56.48;99858.34;5070532;28;20032;-22
2021/09/13 00:50:06;;;;;;;14.73;10.60;;;;;;;15.51;54.59;99855.78;5069489;28;20515;-22
2021/09/13 00:52:31;;;;;;;16.13;11.52;;;;;;;15.55;55.74;99838.06;5070327;28;20036;-22
2021/09/13 00:54:58;;;;;;;16.70;12.77;;;;;;;15.97;55.70;99851.56;5070538;28;20037;-22
2021/09/13 00:57:24;;;;;;;18.55;12.57;;;;;;;16.01;55.09;99835.72;5036098;28;20028;-22
2021/09/13 00:59:49;;;;;;;19.88;13.82;;;;;;;16.32;54.90;99855.53;5052323;28;20400;-22
2021/09/13 01:02:15;;;;;;;19.67;13.25;;;;;;;16.22;55.38;99859.00;5070376;28;20055;-22
2021/09/13 01:04:40;;;;;;;19.38;12.68;;;;;;;15.99;55.78;99851.31;5070369;28;20036;-22
2021/09/13 01:07:06;;;;;;;18.35;13.68;;;;;;;16.05;56.07;99845.69;5052678;28;20369;-22
2021/09/13 01:09:31;;;;;;;17.08;12.98;;;;;;;15.84;57.20;99862.78;5070223;28;20036;-22
2021/09/13 01:11:57;;;;;;;19.13;13.10;;;;;;;15.95;56.42;99863.66;5035549;28;20063;-22
2021/09/13 01:14:22;;;;;;;19.27;12.30;;;;;;;16.03;56.32;99871.25;5052274;28;20424;-22
2021/09/13 01:16:48;;;;;;;19.00;12.88;;;;;;;16.12;55.83;99874.25;5070245;28;20040;-22
2021/09/13 01:19:13;;;;;;;18.90;12.82;;;;;;;16.20;54.52;99865.69;5052193;28;20082;-22
2021/09/13 01:21:40;;;;;;;16.48;12.55;;;;;;;16.09;54.46;99864.03;5069636;28;20033;-22
2021/09/13 01:24:05;;;;;;;16.75;11.32;;;;;;;15.66;53.77;99862.09;5069907;28;20043;-22
2021/09/13 01:26:31;;;;;;;17.38;11.73;;;;;;;15.76;53.74;99868.66;5069955;28;20028;-22
2021/09/13 01:28:56;;;;;;;17.20;12.07;;;;;;;15.71;54.95;99863.19;5069776;28;20029;-22
2021/09/13 01:31:22;;;;;;;17.38;12.93;;;;;;;15.54;54.57;99866.84;5069713;28;20086;-22
2021/09/13 01:33:47;;;;;;;20.98;12.38;;;;;;;15.78;55.70;99869.22;5069557;28;20416;-22
2021/09/13 01:36:13;;;;;;;15.75;11.65;;;;;;;15.25;57.60;99856.38;5069660;28;20119;-22
2021/09/13 01:38:38;;;;;;;17.65;12.75;;;;;;;15.36;56.22;99862.63;5069690;28;20094;-22
2021/09/13 01:41:04;;;;;;;18.00;12.05;;;;;;;15.41;58.07;99876.13;5051873;28;20492;-22
2021/09/13 01:43:29;;;;;;;15.68;12.30;;;;;;;15.44;57.97;99874.81;5069498;28;20488;-22
2021/09/13 01:45:55;;;;;;;20.63;13.50;;;;;;;15.75;56.17;99869.72;5051918;28;20028;-21
2021/09/13 01:48:20;;;;;;;19.58;12.85;;;;;;;15.78;56.00;99869.22;5069546;28;20028;-21
2021/09/13 01:50:47;;;;;;;22.88;13.65;;;;;;;15.72;55.71;99880.97;5051810;28;20032;-22
2021/09/13 01:53:12;;;;;;;18.25;13.55;;;;;;;15.68;56.72;99862.63;5069346;28;20152;-22
2021/09/13 01:55:38;;;;;;;22.98;13.68;;;;;;;15.67;54.86;99868.28;5069395;28;20501;-22
2021/09/13 01:58:03;;;;;;;20.40;13.13;;;;;;;15.27;55.55;99874.94;5069171;28;20027;-22
2021/09/13 02:00:29;;;;;;;19.30;12.40;;;;;;;15.23;55.84;99853.13;5068813;28;20044;-22
2021/09/13 02:02:54;;;;;;;18.65;13.32;;;;;;;15.32;56.09;99877.66;5069112;28;20033;-22
2021/09/13 02:05:20;;;;;;;18.10;13.30;;;;;;;15.49;57.17;99880.25;5069083;28;20024;-21
2021/09/13 02:07:45;;;;;;;21.08;12.20;;;;;;;14.77;59.21;99890.28;5068911;28;20123;-22
2021/09/13 02:10:11;;;;;;;16.40;12.75;;;;;;;14.94;58.90;99881.31;5069021;28;20028;-22
2021/09/13 02:12:36;;;;;;;18.40;12.90;;;;;;;15.37;56.88;99880.41;5069074;28;20068;-22
2021/09/13 02:15:02;;;;;;;18.50;14.27;;;;;;;15.15;58.41;99883.13;5069011;28;20056;-22
2021/09/13 02:17:28;;;;;;;16.85;12.45;;;;;;;15.23;58.58;99880.00;5069037;28;20032;-22
2021/09/13 02:19:53;;;;;;;18.05;13.23;;;;;;;15.21;58.07;99876.75;5068711;28;20036;-21
2021/09/13 02:22:19;;;;;;;20.10;12.90;;;;;;;15.29;58.16;99883.53;5068974;28;20064;-22
2021/09/13 02:24:44;;;;;;;19.85;12.93;;;;;;;15.48;57.53;99881.28;5051086;28;20040;-22
2021/09/13 02:27:10;;;;;;;18.58;12.65;;;;;;;15.37;57.94;99888.47;5069124;28;20028;-22
2021/09/13 02:29:35;;;;;;;21.60;11.80;;;;;;;15.55;57.86;99887.28;5050943;28;20056;-22
2021/09/13 02:32:01;;;;;;;23.20;12.52;;;;;;;15.42;57.63;99893.06;5068800;28;20515;-22
2021/09/13 02:34:27;;;;;;;24.17;12.88;;;;;;;15.41;57.28;99880.72;5068850;28;20032;-22
2021/09/13 02:36:52;;;;;;;20.98;12.35;;;;;;;15.29;57.94;99886.25;5068609;28;20024;-21
2021/09/13 02:39:17;;;;;;;16.85;11.13;;;;;;;14.94;58.65;99879.44;5068826;28;20090;-22
2021/09/13 02:41:43;;;;;;;19.35;11.48;;;;;;;15.05;59.05;99888.41;5068629;28;20024;-22
2021/09/13 02:44:08;;;;;;;18.90;12.07;;;;;;;15.34;56.65;99885.47;5050802;28;20112;-21
2021/09/13 02:46:34;;;;;;;30.08;13.13;;;;;;;15.38;55.90;99876.63;5068797;28;20496;-22
2021/09/13 02:48:59;;;;;;;23.17;13.63;;;;;;;15.90;54.57;99883.28;5050675;28;20108;-22
2021/09/13 02:51:25;;;;;;;22.83;12.75;;;;;;;15.58;55.56;99888.63;5084006;28;20060;-22
2021/09/13 02:53:50;;;;;;;23.35;14.07;;;;;;;15.49;55.22;99882.94;5068337;28;20053;-22
2021/09/13 02:56:16;;;;;;;28.95;16.30;;;;;;;15.08;56.34;99866.44;5068941;28;20060;-22
2021/09/13 02:58:42;;;;;;;24.92;14.00;;;;;;;14.99;58.04;99894.78;5050638;28;20025;-22
2021/09/13 03:01:08;;;;;;;24.20;15.18;;;;;;;14.88;59.64;99876.97;5069099;28;20036;-22
2021/09/13 03:03:33;;;;;;;27.80;14.93;;;;;;;14.99;57.69;99884.84;5068803;28;20043;-21
2021/09/13 03:05:58;;;;;;;30.40;15.38;;;;;;;15.38;58.67;99886.56;5068303;28;20063;-22
2021/09/13 03:08:24;;;;;;;96.10;38.55;;;;;;;15.37;56.78;99884.97;5050627;28;20197;-22
2021/09/13 03:10:49;;;;;;;63.95;30.35;;;;;;;15.56;56.11;99872.75;5068538;28;20029;-22
2021/09/13 03:13:15;;;;;;;49.50;24.75;;;;;;;15.52;57.05;99865.47;5052495;28;20063;-22
2021/09/13 03:15:40;;;;;;;49.90;24.05;;;;;;;15.90;57.23;99885.16;5072049;28;20454;-22
2021/09/13 03:18:06;;;;;;;51.22;26.58;;;;;;;15.54;56.60;99890.22;5072380;28;20024;-21
2021/09/13 03:20:32;;;;;;;25.00;16.45;;;;;;;15.53;57.69;99888.56;5072209;28;20025;-22
2021/09/13 03:22:57;;;;;;;38.08;20.33;;;;;;;15.35;59.33;99887.09;5072597;28;20043;-22
2021/09/13 03:25:24;;;;;;;24.25;15.65;;;;;;;15.32;58.30;99887.59;5072137;28;20108;-22
2021/09/13 03:27:50;;;;;;;21.85;12.95;;;;;;;15.20;59.12;99864.41;5071809;28;20036;-22
2021/09/13 03:30:15;;;;;;;19.48;13.45;;;;;;;15.08;58.93;99890.59;5072150;28;20408;-22
2021/09/13 03:32:41;;;;;;;31.23;14.45;;;;;;;15.29;58.62;99872.81;5072156;28;20032;-22
2021/09/13 03:35:07;;;;;;;17.70;11.48;;;;;;;15.76;56.16;99893.66;5071810;28;20025;-22
2021/09/13 03:37:33;;;;;;;31.70;13.45;;;;;;;15.60;57.70;99898.06;5054176;28;20021;-22
2021/09/13 03:39:58;;;;;;;20.50;12.60;;;;;;;15.44;59.31;99901.69;5072176;28;20024;-21
2021/09/13 03:42:24;;;;;;;22.75;12.45;;;;;;;15.37;58.91;99903.78;5072117;28;20033;-21
2021/09/13 03:44:49;;;;;;;31.08;13.48;;;;;;;15.42;58.80;99909.19;5071966;28;20035;-21
2021/09/13 03:47:15;;;;;;;30.27;13.63;;;;;;;15.12;59.81;99912.38;5071714;28;20086;-21
2021/09/13 03:49:40;;;;;;;25.13;13.68;;;;;;;15.32;58.41;99909.09;5071467;28;20502;-21
2021/09/13 03:52:08;;;;;;;19.55;12.43;;;;;;;15.52;58.00;99913.84;5053890;28;20044;-21
2021/09/13 03:54:35;;;;;;;17.95;12.00;;;;;;;15.47;57.43;99918.13;5071432;28;20052;-21
2021/09/13 03:57:00;;;;;;;15.82;11.75;;;;;;;15.66;56.92;99925.81;5071355;28;20099;-21
2021/09/13 03:59:26;;;;;;;16.50;11.65;;;;;;;15.56;57.03;99923.81;5053679;28;20472;-22
2021/09/13 04:01:51;;;;;;;18.35;12.73;;;;;;;15.30;57.95;99911.22;5071327;28;20606;-22
2021/09/13 04:04:21;;;;;;;22.75;13.23;;;;;;;15.09;59.17;99915.56;5071443;28;20043;-23
2021/09/13 04:06:50;;;;;;;20.38;13.00;;;;;;;15.16;58.30;99933.13;5071495;28;20028;-22
2021/09/13 04:11:57;;;;;;;20.75;12.32;;;;;;;15.32;58.65;99922.53;5071254;28;20045;-22
2021/09/13 04:14:24;;;;;;;18.30;12.88;;;;;;;15.41;58.45;99923.69;5071452;28;20035;-22
2021/09/13 04:16:50;;;;;;;19.77;12.40;;;;;;;15.18;60.37;99933.69;5071050;28;20039;-22
2021/09/13 04:19:15;;;;;;;16.33;12.68;;;;;;;15.38;59.67;99926.88;5071214;28;20029;-21
2021/09/13 04:21:41;;;;;;;18.23;11.80;;;;;;;15.54;58.54;99925.97;5070867;28;20025;-22
2021/09/13 04:24:07;;;;;;;16.90;12.10;;;;;;;15.74;57.77;99928.06;5071139;28;20131;-21
2021/09/13 04:26:32;;;;;;;18.08;13.02;;;;;;;15.61;58.41;99933.81;5071050;28;20024;-22
2021/09/13 04:28:58;;;;;;;17.10;12.52;;;;;;;15.83;58.15;99936.44;5053323;28;20082;-22
2021/09/13 04:31:23;;;;;;;20.50;12.88;;;;;;;15.87;57.80;99924.13;5071031;28;20095;-22
2021/09/13 04:33:50;;;;;;;15.82;11.90;;;;;;;15.95;57.76;99926.31;5071161;28;20063;-21
2021/09/13 04:36:16;;;;;;;18.00;12.68;;;;;;;16.19;57.06;99944.78;5070832;28;20068;-22
2021/09/13 04:38:41;;;;;;;15.38;11.18;;;;;;;16.09;56.50;99934.78;5070831;28;20059;-22
2021/09/13 04:41:07;;;;;;;16.48;12.13;;;;;;;16.21;56.46;99935.38;5070915;28;20120;-22
2021/09/13 04:43:32;;;;;;;18.90;12.77;;;;;;;16.17;56.50;99925.41;5070727;28;20577;-21
2021/09/13 04:45:58;;;;;;;19.55;11.98;;;;;;;16.32;57.11;99938.94;5070392;28;20103;-22
2021/09/13 04:48:24;;;;;;;19.90;12.30;;;;;;;16.47;56.13;99941.75;5071084;28;20060;-22
2021/09/13 04:50:52;;;;;;;16.67;12.65;;;;;;;16.22;56.08;99941.56;5070545;28;20032;-21
2021/09/13 04:53:17;;;;;;;;;;;;;;;16.10;56.75;99946.34;5070383;28;20056;-22
2021/09/13 04:55:43;;;;;;;16.95;11.82;;;;;;;15.98;56.86;99960.78;5070260;28;19916;-22
2021/09/13 04:58:08;;;;;;;18.00;12.77;;;;;;;16.12;56.85;99950.41;5070368;28;20071;-21
2021/09/13 05:00:34;;;;;;;16.20;11.95;;;;;;;16.47;55.64;99957.09;5070343;28;20035;-22
2021/09/13 05:02:59;;;;;;;17.65;12.48;;;;;;;16.25;56.61;99949.94;5070437;28;20063;-22
2021/09/13 05:05:25;;;;;;;15.15;11.88;;;;;;;16.37;56.13;99952.44;5070320;28;20040;-22
2021/09/13 05:07:50;;;;;;;19.20;12.70;;;;;;;16.50;56.32;99961.13;5069783;28;20115;-22
2021/09/13 05:10:16;;;;;;;21.75;13.30;;;;;;;16.53;55.76;99965.97;5070600;28;20063;-22
2021/09/13 05:12:41;;;;;;;18.27;12.18;;;;;;;16.42;55.95;99968.59;5070368;28;20062;-22
2021/09/13 05:15:07;;;;;;;20.15;13.18;;;;;;;16.43;55.96;99972.94;5069973;28;20028;-22
2021/09/13 05:17:33;;;;;;;18.85;11.90;;;;;;;16.39;56.27;99971.84;5052279;28;20036;-22
2021/09/13 05:19:58;;;;;;;16.63;12.15;;;;;;;16.53;55.81;99964.13;5069850;28;20032;-22
2021/09/13 05:22:24;;;;;;;19.25;12.10;;;;;;;16.69;56.00;99970.38;5069832;28;20412;-21
2021/09/13 05:24:49;;;;;;;18.48;12.18;;;;;;;16.82;55.77;99969.94;5052058;28;20032;-22
2021/09/13 05:27:14;;;;;;;17.23;12.18;;;;;;;16.96;54.55;99948.72;5069913;28;20103;-22
2021/09/13 05:29:40;;;;;;;15.30;11.68;;;;;;;17.35;54.05;99977.16;5069580;28;20040;-22
2021/09/13 05:32:06;;;;;;;17.70;11.48;;;;;;;17.46;53.20;99968.78;5069943;28;20071;-22
2021/09/13 05:34:31;;;;;;;14.93;12.20;;;;;;;17.40;53.56;99971.75;5069833;28;20457;-21
2021/09/13 05:36:57;;;;;;;18.65;12.10;;;;;;;17.28;52.84;99971.97;5069099;28;20033;-22
2021/09/13 05:39:22;;;;;;;20.80;14.07;;;;;;;17.11;53.86;99977.59;5069575;28;20067;-22
2021/09/13 05:41:48;;;;;;;23.33;14.40;;;;;;;17.27;53.48;99979.28;5069401;28;20024;-21
2021/09/13 05:44:14;;;;;;;17.48;12.95;;;;;;;17.54;52.94;99975.56;5069630;28;20129;-29
2021/09/13 05:46:39;;;;;;;16.33;12.57;;;;;;;17.70;52.54;99979.09;5069874;28;20143;-21
2021/09/13 05:49:09;;;;;;;22.38;12.38;;;;;;;18.03;51.46;99972.38;5051831;28;20036;-22
2021/09/13 05:51:42;;;;;;;20.30;13.45;;;;;;;18.14;50.99;99975.06;5069296;28;20082;-22
2021/09/13 05:54:07;;;;;;;19.02;12.73;;;;;;;18.22;51.04;99974.53;5069275;28;20504;-22
2021/09/13 05:56:33;;;;;;;17.55;12.00;;;;;;;18.20;50.32;99955.09;5069173;28;20028;-22
2021/09/13 05:58:58;;;;;;;17.00;12.18;;;;;;;18.40;50.10;99962.34;5069180;28;20024;-22
2021/09/13 06:01:24;;;;;;;14.98;11.95;;;;;;;18.50;50.15;99975.03;5051406;28;20032;-21
2021/09/13 06:03:49;;;;;;;16.02;11.30;;;;;;;18.56;49.96;99973.94;5069499;28;20180;-22
2021/09/13 06:06:15;;;;;;;16.42;11.40;;;;;;;18.72;49.61;99975.50;5051489;28;20837;-21
2021/09/13 06:08:40;;;;;;;18.20;11.85;;;;;;;18.78;48.64;99974.41;5069181;28;20111;-22
2021/09/13 06:11:06;;;;;;;17.98;11.25;;;;;;;18.78;47.98;99977.09;5069137;28;20404;-22
2021/09/13 06:13:32;;;;;;;14.48;10.85;;;;;;;18.81;48.15;99981.97;5068946;28;20032;-21
2021/09/13 06:15:58;;;;;;;16.05;11.25;;;;;;;18.87;48.29;99972.75;5068871;28;20400;-22
2021/09/13 06:18:24;;;;;;;19.52;13.27;;;;;;;19.08;48.09;99980.78;5068906;28;20103;-22
2021/09/13 06:20:49;;;;;;;17.15;11.40;;;;;;;18.99;47.22;99987.88;5068909;28;20127;-22
2021/09/13 06:23:15;;;;;;;15.38;10.73;;;;;;;19.21;47.31;99977.50;5068955;28;20059;-22
2021/09/13 06:25:41;;;;;;;14.77;10.63;;;;;;;19.23;46.12;99986.13;5068729;28;20102;-22
2021/09/13 06:28:07;;;;;;;26.10;12.40;;;;;;;19.33;46.62;100003.38;5068886;28;20032;-22
2021/09/13 06:30:32;;;;;;;21.67;14.43;;;;;;;19.58;46.10;99995.13;5069001;28;20024;-22
2021/09/13 06:32:58;;;;;;;15.25;10.68;;;;;;;19.30;46.14;100006.66;5050929;28;20036;-21
2021/09/13 06:35:23;;;;;;;43.75;33.22;;;;;;;19.60;47.42;100003.75;5068667;28;20025;-21
2021/09/13 06:37:49;;;;;;;20.15;12.15;;;;;;;19.49;45.85;99985.97;5068327;28;20064;-22
2021/09/13 06:40:14;;;;;;;16.60;11.20;;;;;;;19.33;46.19;99990.69;5069115;28;20032;-22
2021/09/13 06:42:40;;;;;;;14.82;11.30;;;;;;;19.52;46.08;100004.34;5068999;28;20041;-22
2021/09/13 06:45:10;;;;;;;20.38;13.18;;;;;;;20.05;45.50;99991.00;5068800;28;20056;-22
2021/09/13 06:47:45;;;;;;;14.23;10.63;;;;;;;20.27;44.03;100000.59;5069738;28;20036;-22
2021/09/13 06:50:13;;;;;;;14.50;10.38;;;;;;;20.48;43.83;100006.59;5072996;28;20074;-22
2021/09/13 06:52:39;;;;;;;13.30;10.65;;;;;;;20.57;44.05;100009.50;5072778;28;20059;-22
2021/09/13 06:55:05;;;;;;;18.02;11.70;;;;;;;20.58;43.12;99994.88;5072656;28;20035;-22
2021/09/13 06:57:31;;;;;;;15.45;11.38;;;;;;;20.98;43.28;100009.06;5072772;28;20035;-22
2021/09/13 06:59:59;;;;;;;13.48;10.75;;;;;;;20.87;42.72;100003.75;5072475;28;20426;-22
2021/09/13 07:02:25;;;;;;;16.75;11.23;;;;;;;21.18;42.18;100011.53;5072505;28;20058;-22
2021/09/13 07:04:50;;;;;;;15.75;11.52;;;;;;;21.28;42.41;100016.81;5072760;28;20037;-22
2021/09/13 07:07:16;;;;;;;18.17;11.15;;;;;;;21.35;41.62;100019.19;5072611;28;20036;-22
2021/09/13 07:09:41;;;;;;;15.75;11.13;;;;;;;21.21;41.88;99997.41;5072249;28;20526;-22
2021/09/13 07:12:07;;;;;;;15.18;10.80;;;;;;;21.44;42.01;100019.38;5072894;28;20499;-22
2021/09/13 07:14:32;;;;;;;11.57;9.43;;;;;;;21.56;40.84;100030.59;5072807;28;20096;-22
2021/09/13 07:17:00;;;;;;;13.32;10.45;;;;;;;21.55;40.89;100022.72;5072517;28;20115;-22
2021/09/13 07:19:26;;;;;;;16.35;10.82;;;;;;;21.75;41.02;100027.06;5072394;28;20036;-22
2021/09/13 07:21:51;;;;;;;13.60;10.23;;;;;;;21.69;41.26;100023.63;5072389;28;20093;-22
2021/09/13 07:24:20;;;;;;;14.95;10.02;;;;;;;22.04;40.35;100030.41;5072298;28;20040;-22
2021/09/13 07:26:46;;;;;;;15.77;10.68;;;;;;;22.35;39.64;100029.13;5072456;28;20028;-22
2021/09/13 07:29:12;;;;;;;15.07;10.02;;;;;;;22.51;39.87;100032.38;5072773;28;20070;-23
2021/09/13 07:31:37;;;;;;;15.60;10.77;;;;;;;22.60;40.22;100031.38;5071896;28;20028;-22
2021/09/13 07:34:04;;;;;;;14.50;10.00;;;;;;;22.70;39.53;100026.84;5072115;28;20041;-22
2021/09/13 07:36:30;;;;;;;16.40;10.18;;;;;;;22.78;39.25;100024.25;5087833;28;20469;-22
2021/09/13 07:38:57;;;;;;;17.75;10.68;;;;;;;22.77;39.61;100028.06;5071916;28;20539;-21
2021/09/13 07:41:22;;;;;;;17.52;11.60;;;;;;;23.21;39.53;100023.13;5071836;28;20120;-21
2021/09/13 07:43:48;;;;;;;17.70;10.48;;;;;;;23.55;39.00;100028.13;5071673;28;20032;-22
2021/09/13 07:46:13;;;;;;;13.63;9.88;;;;;;;23.36;38.31;100019.31;5071786;28;20028;-22
2021/09/13 07:48:39;;;;;;;17.05;10.40;;;;;;;23.46;38.29;100021.81;5072238;28;20064;-22
2021/09/13 07:51:04;;;;;;;13.98;10.30;;;;;;;23.74;38.23;100019.81;5072046;28;20400;-22
2021/09/13 07:53:30;;;;;;;13.57;10.50;;;;;;;23.75;38.29;100010.53;5071487;28;20110;-22
2021/09/13 07:55:55;;;;;;;16.35;10.63;;;;;;;23.73;38.48;100011.94;5071658;28;20115;-22
2021/09/13 07:58:21;;;;;;;13.73;9.80;;;;;;;24.08;38.11;100017.69;5071146;28;20029;-22
2021/09/13 08:00:46;;;;;;;16.98;9.85;;;;;;;24.49;37.55;100030.25;5071611;28;20382;-22
2021/09/13 08:03:12;;;;;;;14.32;9.30;;;;;;;24.36;37.57;100016.41;5071669;28;20054;-22
2021/09/13 08:05:37;;;;;;;15.90;9.45;;;;;;;24.49;37.47;100022.09;5071535;28;20472;-21
2021/09/13 08:08:03;;;;;;;17.35;10.25;;;;;;;24.57;36.24;100018.63;5071602;28;20028;-22
2021/09/13 08:10:28;;;;;;;15.00;10.32;;;;;;;24.51;37.22;100014.44;5071559;28;20107;-21
2021/09/13 08:12:54;;;;;;;13.63;9.85;;;;;;;24.98;36.37;100018.28;5071388;28;20028;-22
2021/09/13 08:15:23;;;;;;;14.55;9.63;;;;;;;25.33;35.68;100020.31;5071316;28;20029;-21
2021/09/13 08:17:48;;;;;;;16.55;10.43;;;;;;;25.30;35.50;99990.94;5071066;28;20503;-21
2021/09/13 08:20:14;;;;;;;15.30;9.52;;;;;;;25.40;35.66;100004.28;5071318;28;20037;-22
2021/09/13 08:22:39;;;;;;;14.05;9.52;;;;;;;25.49;34.56;100023.41;5071125;28;20024;-22
2021/09/13 08:25:05;;;;;;;14.30;9.57;;;;;;;25.83;34.70;100025.34;5071184;28;20036;-22
2021/09/13 08:27:31;;;;;;;13.32;9.27;;;;;;;25.63;34.10;100026.78;5071375;28;20033;-22
2021/09/13 08:29:56;;;;;;;13.65;9.60;;;;;;;25.99;33.71;100012.81;5070778;28;20032;-22
2021/09/13 08:32:22;;;;;;;15.48;9.88;;;;;;;26.03;34.04;100013.78;5071056;28;20107;-22
2021/09/13 08:34:47;;;;;;;16.55;9.75;;;;;;;26.36;33.82;100007.75;5071014;28;20040;-22
2021/09/13 08:37:13;;;;;;;12.85;9.30;;;;;;;26.21;31.94;100020.00;5070822;28;20491;-22
2021/09/13 08:39:38;;;;;;;14.18;9.05;;;;;;;26.24;33.21;100002.16;5052752;28;20051;-22
2021/09/13 08:42:04;;;;;;;14.13;9.40;;;;;;;26.50;31.59;99993.06;5070823;28;20059;-22
2021/09/13 08:44:32;;;;;;;13.32;9.40;;;;;;;26.73;30.42;100010.84;5070637;28;20039;-22
2021/09/13 08:47:06;;;;;;;13.73;9.50;;;;;;;26.83;30.25;99998.75;5052926;28;20381;-22
2021/09/13 08:49:35;;;;;;;11.43;8.95;;;;;;;27.03;29.34;99986.22;5070742;28;20529;-21
2021/09/13 08:52:03;;;;;;;13.50;9.20;;;;;;;26.87;29.96;99994.22;5070431;28;20037;-21
2021/09/13 08:54:31;;;;;;;12.98;8.73;;;;;;;26.81;29.82;99987.34;5070289;28;20061;-21
2021/09/13 08:57:02;;;;;;;11.32;9.13;;;;;;;26.84;29.69;99976.50;5052952;28;20047;-21
2021/09/13 08:59:28;;;;;;;11.63;9.02;;;;;;;27.20;29.00;99993.53;5070341;28;20412;-21
2021/09/13 09:01:54;;;;;;;13.70;9.15;;;;;;;27.15;29.29;99983.56;5052375;28;20032;-22
2021/09/13 09:04:19;;;;;;;13.02;9.50;;;;;;;27.30;29.02;99986.88;5070254;28;20036;-22
2021/09/13 09:06:45;;;;;;;12.95;9.25;;;;;;;27.63;29.57;99985.00;5070360;28;20063;-22
2021/09/13 09:09:18;;;;;;;13.75;8.50;;;;;;;27.86;29.65;99987.38;5070277;28;20062;-22
2021/09/13 09:11:50;;;;;;;12.10;9.10;;;;;;;27.97;27.89;99993.25;5069406;28;20035;-22
2021/09/13 09:14:35;;;;;;;14.93;9.13;;;;;;;28.13;27.31;99977.78;5070238;28;20484;-22
2021/09/13 09:17:07;;;;;;;13.05;9.05;;;;;;;28.04;28.36;99966.91;5070470;28;20017;-22
2021/09/13 09:19:32;;;;;;;11.77;8.77;;;;;;;28.67;28.22;99976.88;5070197;28;20097;-21
2021/09/13 09:22:21;;;;;;;17.08;9.85;;;;;;;28.50;28.10;99977.88;5070023;28;20028;-21
2021/09/13 09:24:47;;;;;;;15.15;9.60;;;;;;;28.58;29.35;99973.41;5054813;28;20438;-22
2021/09/13 09:27:13;;;;;;;15.10;9.40;;;;;;;29.14;27.86;99972.84;5069892;28;20082;-21
2021/09/13 09:29:38;;;;;;;14.35;8.52;;;;;;;28.94;27.99;99972.59;5069690;28;20079;-22
2021/09/13 09:32:05;;;;;;;13.88;9.90;;;;;;;28.83;28.23;99968.72;5069830;28;20028;-22
2021/09/13 09:34:36;;;;;;;13.07;9.67;;;;;;;28.73;28.15;99969.19;5069890;28;20032;-22
2021/09/13 09:37:09;;;;;;;11.35;9.00;;;;;;;29.36;27.20;99974.25;5069731;28;20062;-22
2021/09/13 09:39:40;;;;;;;14.68;9.52;;;;;;;29.62;27.34;99954.59;5069619;28;20043;-22
2021/09/13 09:42:11;;;;;;;11.80;8.63;;;;;;;29.45;27.45;99962.00;5069725;28;20128;-21
2021/09/13 09:44:37;;;;;;;14.25;9.60;;;;;;;29.77;26.44;99966.81;5069574;28;20029;-21
2021/09/13 09:47:05;;;;;;;13.70;9.23;;;;;;;29.28;26.83;99966.97;5069113;28;20029;-21
2021/09/13 09:49:43;;;;;;;16.25;9.70;;;;;;;29.13;27.46;99950.06;5069453;28;20025;-22
2021/09/13 09:52:09;;;;;;;14.18;8.85;;;;;;;29.27;27.48;99955.19;5069394;28;20142;-22
2021/09/13 09:54:34;;;;;;;12.10;8.55;;;;;;;29.43;26.04;99949.75;5069046;28;20139;-22
2021/09/13 09:57:07;;;;;;;14.25;8.30;;;;;;;29.43;25.88;99930.53;5069351;28;20052;-22
2021/09/13 09:59:38;;;;;;;11.25;8.90;;;;;;;29.11;25.81;99952.34;5069189;28;20055;-22
2021/09/13 10:02:14;;;;;;;17.48;9.30;;;;;;;29.19;26.12;99948.66;5069195;28;20024;-22
2021/09/13 10:04:40;;;;;;;11.82;9.05;;;;;;;28.84;26.31;99935.44;5069190;28;20518;-22
2021/09/13 10:07:06;;;;;;;13.18;9.15;;;;;;;29.41;26.33;99949.31;5069293;28;20057;-22
2021/09/13 10:09:31;;;;;;;13.48;9.10;;;;;;;29.35;25.13;99943.25;5069271;28;20040;-21
2021/09/13 10:11:59;;;;;;;14.70;8.80;;;;;;;29.93;25.57;99939.34;5069098;28;20032;-21
2021/09/13 10:14:26;;;;;;;10.40;8.82;;;;;;;30.37;24.38;99953.88;5069343;28;20853;-21
2021/09/13 10:16:52;;;;;;;14.05;8.63;;;;;;;30.51;26.41;99947.13;5069470;28;20511;-22
2021/09/13 10:19:18;;;;;;;13.07;8.80;;;;;;;30.21;24.84;99928.28;5068991;28;20041;-22
2021/09/13 10:21:44;;;;;;;10.88;8.38;;;;;;;30.52;25.44;99937.72;5068989;28;20079;-22
2021/09/13 10:24:14;;;;;;;12.55;8.68;;;;;;;30.26;25.89;99917.03;5068884;28;20480;-22
2021/09/13 10:26:50;;;;;;;12.48;9.10;;;;;;;30.11;25.55;99942.56;5069052;28;20024;-22
2021/09/13 10:29:26;;;;;;;13.13;9.07;;;;;;;30.32;25.06;99940.41;5051101;28;20021;-21
2021/09/13 10:31:56;;;;;;;15.07;9.18;;;;;;;30.56;25.10;99930.34;5068621;28;20037;-21
2021/09/13 10:34:53;;;;;;;11.90;8.55;;;;;;;30.86;23.57;99932.59;5069148;28;20764;-22
2021/09/13 10:37:22;;;;;;;13.63;8.90;;;;;;;31.23;24.77;99942.09;5068837;28;20386;-21
2021/09/13 10:39:56;;;;;;;12.50;8.75;;;;;;;31.45;23.41;99931.53;5067975;28;20048;-21
2021/09/13 10:42:28;;;;;;;17.02;9.27;;;;;;;31.41;22.95;99936.16;5067083;28;20411;-21
2021/09/13 10:45:13;;;;;;;12.55;8.98;;;;;;;31.30;22.83;99935.91;5068860;28;20063;-21
2021/09/13 10:47:43;;;;;;;13.38;8.27;;;;;;;30.36;23.45;99935.78;5068527;28;20030;-21
2021/09/13 10:50:16;;;;;;;12.52;8.85;;;;;;;30.55;24.13;99928.75;5068733;28;20047;-21
2021/09/13 10:52:42;;;;;;;15.65;8.60;;;;;;;30.86;24.12;99916.88;5068242;28;20057;-21
2021/09/13 10:55:08;;;;;;;12.68;8.80;;;;;;;31.16;25.65;99924.59;5068641;28;20052;-22
2021/09/13 10:57:52;;;;;;;12.63;8.70;;;;;;;31.58;23.75;99913.69;5068532;28;20046;-22
2021/09/13 11:00:51;;;;;;;14.63;8.55;;;;;;;31.09;23.67;99919.75;5068674;28;20115;-21
2021/09/13 11:06:16;;;;;;;11.25;8.70;;;;;;;31.21;23.76;99921.56;5068607;28;20051;-21
2021/09/13 11:08:42;;;;;;;12.73;9.45;;;;;;;31.00;24.18;99903.44;5068559;28;20043;-22
2021/09/13 11:11:14;;;;;;;13.88;8.45;;;;;;;30.99;23.28;99909.31;5068612;28;20032;-21
2021/09/13 11:13:41;;;;;;;10.18;8.25;;;;;;;31.50;22.87;99903.69;5068530;28;20024;-22
2021/09/13 11:16:07;;;;;;;16.73;8.88;;;;;;;31.85;23.55;99905.50;5068621;28;20089;-21
2021/09/13 11:18:33;;;;;;;12.57;8.88;;;;;;;32.22;23.57;99893.94;5068316;28;20024;-21
2021/09/13 11:21:24;;;;;;;12.38;8.70;;;;;;;32.59;21.57;99898.84;5068614;28;20032;-21
2021/09/13 11:24:02;;;;;;;13.52;8.45;;;;;;;31.81;23.20;99894.44;5068446;28;20040;-21